sensor_id;sensor_type;location;lat;lon;timestamp;P1;durP1;ratioP1;P2;durP2;ratioP2
44139;SDS011;29803;51.048;4.686;2023-05-13T00:02:05;21.63;;;12.02;;
44139;SDS011;29803;51.048;4.686;2023-05-13T00:04:37;22.52;;;13.40;;
44139;SDS011;29803;51.048;4.686;2023-05-13T00:07:08;23.65;;;13.98;;
44139;SDS011;29803;51.048;4.686;2023-05-13T00:09:39;19.63;;;14.18;;
44139;SDS011;29803;51.048;4.686;2023-05-13T00:12:09;20.67;;;13.73;;
44139;SDS011;29803;51.048;4.686;2023-05-13T00:14:40;23.17;;;15.27;;
44139;SDS011;29803;51.048;4.686;2023-05-13T00:17:10;22.10;;;15.40;;
44139;SDS011;29803;51.048;4.686;2023-05-13T00:19:41;24.92;;;16.00;;
44139;SDS011;29803;51.048;4.686;2023-05-13T00:22:11;23.80;;;16.17;;
44139;SDS011;29803;51.048;4.686;2023-05-13T00:24:42;21.30;;;15.48;;
44139;SDS011;29803;51.048;4.686;2023-05-13T00:27:12;26.30;;;15.95;;
44139;SDS011;29803;51.048;4.686;2023-05-13T00:29:43;25.17;;;15.07;;
44139;SDS011;29803;51.048;4.686;2023-05-13T00:32:13;24.70;;;15.55;;
44139;SDS011;29803;51.048;4.686;2023-05-13T00:34:44;22.85;;;15.48;;
44139;SDS011;29803;51.048;4.686;2023-05-13T00:37:15;31.65;;;17.52;;
44139;SDS011;29803;51.048;4.686;2023-05-13T00:39:46;24.92;;;16.45;;
44139;SDS011;29803;51.048;4.686;2023-05-13T00:42:16;29.85;;;17.90;;
44139;SDS011;29803;51.048;4.686;2023-05-13T00:44:47;33.75;;;18.70;;
44139;SDS011;29803;51.048;4.686;2023-05-13T00:47:17;26.90;;;16.80;;
44139;SDS011;29803;51.048;4.686;2023-05-13T00:49:48;25.27;;;17.27;;
44139;SDS011;29803;51.048;4.686;2023-05-13T00:52:18;30.17;;;18.65;;
44139;SDS011;29803;51.048;4.686;2023-05-13T00:54:49;31.42;;;19.02;;
44139;SDS011;29803;51.048;4.686;2023-05-13T00:57:20;32.45;;;20.17;;
44139;SDS011;29803;51.048;4.686;2023-05-13T00:59:50;26.67;;;18.83;;
44139;SDS011;29803;51.048;4.686;2023-05-13T01:02:25;33.60;;;20.00;;
44139;SDS011;29803;51.048;4.686;2023-05-13T01:13:11;29.77;;;18.77;;
44139;SDS011;29803;51.048;4.686;2023-05-13T01:15:46;27.85;;;18.15;;
44139;SDS011;29803;51.048;4.686;2023-05-13T01:18:36;32.42;;;19.00;;
44139;SDS011;29803;51.048;4.686;2023-05-13T01:21:10;26.98;;;18.20;;
44139;SDS011;29803;51.048;4.686;2023-05-13T01:23:41;28.40;;;19.27;;
44139;SDS011;29803;51.048;4.686;2023-05-13T01:26:11;28.30;;;18.55;;
44139;SDS011;29803;51.048;4.686;2023-05-13T01:28:42;35.22;;;19.80;;
44139;SDS011;29803;51.048;4.686;2023-05-13T01:31:13;29.05;;;17.80;;
44139;SDS011;29803;51.048;4.686;2023-05-13T01:33:44;29.83;;;18.63;;
44139;SDS011;29803;51.048;4.686;2023-05-13T01:36:16;28.92;;;18.60;;
44139;SDS011;29803;51.048;4.686;2023-05-13T01:38:46;27.60;;;18.25;;
44139;SDS011;29803;51.048;4.686;2023-05-13T01:41:19;28.25;;;18.17;;
44139;SDS011;29803;51.048;4.686;2023-05-13T01:43:49;29.58;;;19.42;;
44139;SDS011;29803;51.048;4.686;2023-05-13T01:46:22;26.85;;;17.65;;
44139;SDS011;29803;51.048;4.686;2023-05-13T01:48:52;25.80;;;16.60;;
44139;SDS011;29803;51.048;4.686;2023-05-13T01:51:26;28.58;;;17.65;;
44139;SDS011;29803;51.048;4.686;2023-05-13T01:53:57;27.23;;;18.42;;
44139;SDS011;29803;51.048;4.686;2023-05-13T01:56:27;28.15;;;16.95;;
44139;SDS011;29803;51.048;4.686;2023-05-13T01:58:58;27.67;;;16.60;;
44139;SDS011;29803;51.048;4.686;2023-05-13T02:01:29;24.45;;;16.50;;
44139;SDS011;29803;51.048;4.686;2023-05-13T02:04:00;24.50;;;16.58;;
44139;SDS011;29803;51.048;4.686;2023-05-13T02:06:31;26.75;;;17.92;;
44139;SDS011;29803;51.048;4.686;2023-05-13T02:09:02;24.13;;;16.48;;
44139;SDS011;29803;51.048;4.686;2023-05-13T02:11:32;21.13;;;15.35;;
44139;SDS011;29803;51.048;4.686;2023-05-13T02:14:05;23.02;;;15.52;;
44139;SDS011;29803;51.048;4.686;2023-05-13T02:16:35;26.50;;;16.35;;
44139;SDS011;29803;51.048;4.686;2023-05-13T02:19:08;23.83;;;15.40;;
44139;SDS011;29803;51.048;4.686;2023-05-13T02:24:15;24.92;;;15.80;;
44139;SDS011;29803;51.048;4.686;2023-05-13T02:26:46;29.35;;;15.98;;
44139;SDS011;29803;51.048;4.686;2023-05-13T02:29:16;27.23;;;16.85;;
44139;SDS011;29803;51.048;4.686;2023-05-13T02:31:47;29.40;;;16.98;;
44139;SDS011;29803;51.048;4.686;2023-05-13T02:34:17;25.25;;;16.80;;
44139;SDS011;29803;51.048;4.686;2023-05-13T02:36:48;25.27;;;17.23;;
44139;SDS011;29803;51.048;4.686;2023-05-13T02:39:19;28.38;;;17.20;;
44139;SDS011;29803;51.048;4.686;2023-05-13T02:41:50;24.40;;;16.63;;
44139;SDS011;29803;51.048;4.686;2023-05-13T02:44:20;23.98;;;17.02;;
44139;SDS011;29803;51.048;4.686;2023-05-13T02:46:51;24.55;;;15.57;;
44139;SDS011;29803;51.048;4.686;2023-05-13T02:49:21;26.35;;;16.17;;
44139;SDS011;29803;51.048;4.686;2023-05-13T02:51:52;23.70;;;16.00;;
44139;SDS011;29803;51.048;4.686;2023-05-13T02:54:22;24.77;;;17.15;;
44139;SDS011;29803;51.048;4.686;2023-05-13T02:56:53;28.92;;;16.77;;
44139;SDS011;29803;51.048;4.686;2023-05-13T02:59:23;24.75;;;15.25;;
44139;SDS011;29803;51.048;4.686;2023-05-13T03:01:54;29.23;;;17.58;;
44139;SDS011;29803;51.048;4.686;2023-05-13T03:04:25;23.77;;;17.65;;
44139;SDS011;29803;51.048;4.686;2023-05-13T03:06:55;21.33;;;14.35;;
44139;SDS011;29803;51.048;4.686;2023-05-13T03:09:26;23.88;;;17.30;;
44139;SDS011;29803;51.048;4.686;2023-05-13T03:11:56;26.50;;;17.40;;
44139;SDS011;29803;51.048;4.686;2023-05-13T03:14:27;23.25;;;16.27;;
44139;SDS011;29803;51.048;4.686;2023-05-13T03:16:58;30.05;;;17.38;;
44139;SDS011;29803;51.048;4.686;2023-05-13T03:19:28;24.98;;;16.23;;
44139;SDS011;29803;51.048;4.686;2023-05-13T03:21:59;25.60;;;16.35;;
44139;SDS011;29803;51.048;4.686;2023-05-13T03:24:29;23.88;;;15.43;;
44139;SDS011;29803;51.048;4.686;2023-05-13T03:27:00;26.17;;;15.18;;
44139;SDS011;29803;51.048;4.686;2023-05-13T03:29:30;29.27;;;16.35;;
44139;SDS011;29803;51.048;4.686;2023-05-13T03:32:01;25.23;;;15.55;;
44139;SDS011;29803;51.048;4.686;2023-05-13T03:34:33;22.30;;;14.45;;
44139;SDS011;29803;51.048;4.686;2023-05-13T03:37:05;22.67;;;15.48;;
44139;SDS011;29803;51.048;4.686;2023-05-13T03:39:36;22.08;;;14.30;;
44139;SDS011;29803;51.048;4.686;2023-05-13T03:42:07;22.05;;;14.85;;
44139;SDS011;29803;51.048;4.686;2023-05-13T03:44:37;23.58;;;13.40;;
44139;SDS011;29803;51.048;4.686;2023-05-13T03:47:08;24.30;;;15.10;;
44139;SDS011;29803;51.048;4.686;2023-05-13T03:49:38;21.45;;;13.70;;
44139;SDS011;29803;51.048;4.686;2023-05-13T03:52:09;25.73;;;14.75;;
44139;SDS011;29803;51.048;4.686;2023-05-13T03:54:40;28.80;;;15.85;;
44139;SDS011;29803;51.048;4.686;2023-05-13T03:57:10;28.30;;;16.55;;
44139;SDS011;29803;51.048;4.686;2023-05-13T03:59:41;26.90;;;14.95;;
44139;SDS011;29803;51.048;4.686;2023-05-13T04:02:11;23.05;;;14.85;;
44139;SDS011;29803;51.048;4.686;2023-05-13T04:04:42;24.80;;;15.02;;
44139;SDS011;29803;51.048;4.686;2023-05-13T04:07:12;24.50;;;15.48;;
44139;SDS011;29803;51.048;4.686;2023-05-13T04:09:43;21.67;;;15.75;;
44139;SDS011;29803;51.048;4.686;2023-05-13T04:12:13;25.77;;;17.05;;
44139;SDS011;29803;51.048;4.686;2023-05-13T04:14:47;26.98;;;16.20;;
44139;SDS011;29803;51.048;4.686;2023-05-13T04:17:17;24.42;;;16.02;;
44139;SDS011;29803;51.048;4.686;2023-05-13T04:19:51;21.88;;;14.65;;
44139;SDS011;29803;51.048;4.686;2023-05-13T04:22:23;25.33;;;14.43;;
44139;SDS011;29803;51.048;4.686;2023-05-13T04:24:53;23.20;;;15.50;;
44139;SDS011;29803;51.048;4.686;2023-05-13T04:27:26;28.75;;;17.48;;
44139;SDS011;29803;51.048;4.686;2023-05-13T04:29:56;25.05;;;16.15;;
44139;SDS011;29803;51.048;4.686;2023-05-13T04:32:27;27.02;;;16.83;;
44139;SDS011;29803;51.048;4.686;2023-05-13T04:34:57;28.25;;;15.65;;
44139;SDS011;29803;51.048;4.686;2023-05-13T04:37:28;24.85;;;17.42;;
44139;SDS011;29803;51.048;4.686;2023-05-13T04:39:59;25.45;;;16.73;;
44139;SDS011;29803;51.048;4.686;2023-05-13T04:42:30;26.63;;;16.00;;
44139;SDS011;29803;51.048;4.686;2023-05-13T04:45:00;23.65;;;15.10;;
44139;SDS011;29803;51.048;4.686;2023-05-13T04:47:31;25.95;;;15.48;;
44139;SDS011;29803;51.048;4.686;2023-05-13T04:50:04;28.80;;;16.00;;
44139;SDS011;29803;51.048;4.686;2023-05-13T04:52:35;24.00;;;14.88;;
44139;SDS011;29803;51.048;4.686;2023-05-13T04:55:06;23.05;;;14.95;;
44139;SDS011;29803;51.048;4.686;2023-05-13T04:57:38;19.08;;;12.82;;
44139;SDS011;29803;51.048;4.686;2023-05-13T05:00:09;23.50;;;14.63;;
44139;SDS011;29803;51.048;4.686;2023-05-13T05:02:39;22.80;;;14.02;;
44139;SDS011;29803;51.048;4.686;2023-05-13T05:05:10;27.85;;;15.77;;
44139;SDS011;29803;51.048;4.686;2023-05-13T05:07:40;21.30;;;14.85;;
44139;SDS011;29803;51.048;4.686;2023-05-13T05:10:11;21.83;;;13.65;;
44139;SDS011;29803;51.048;4.686;2023-05-13T05:12:42;23.48;;;14.15;;
44139;SDS011;29803;51.048;4.686;2023-05-13T05:15:12;19.88;;;13.27;;
44139;SDS011;29803;51.048;4.686;2023-05-13T05:17:44;21.83;;;12.60;;
44139;SDS011;29803;51.048;4.686;2023-05-13T05:20:15;25.55;;;13.57;;
44139;SDS011;29803;51.048;4.686;2023-05-13T05:22:45;23.55;;;13.57;;
44139;SDS011;29803;51.048;4.686;2023-05-13T05:25:18;22.27;;;13.25;;
44139;SDS011;29803;51.048;4.686;2023-05-13T05:27:49;22.77;;;12.77;;
44139;SDS011;29803;51.048;4.686;2023-05-13T05:30:19;17.58;;;12.38;;
44139;SDS011;29803;51.048;4.686;2023-05-13T05:32:50;16.02;;;11.35;;
44139;SDS011;29803;51.048;4.686;2023-05-13T05:35:20;17.70;;;11.07;;
44139;SDS011;29803;51.048;4.686;2023-05-13T05:37:51;17.45;;;12.25;;
44139;SDS011;29803;51.048;4.686;2023-05-13T05:40:22;20.48;;;12.10;;
44139;SDS011;29803;51.048;4.686;2023-05-13T05:42:52;17.38;;;12.07;;
44139;SDS011;29803;51.048;4.686;2023-05-13T05:45:23;18.25;;;11.48;;
44139;SDS011;29803;51.048;4.686;2023-05-13T05:47:53;15.52;;;10.70;;
44139;SDS011;29803;51.048;4.686;2023-05-13T05:50:24;17.35;;;10.45;;
44139;SDS011;29803;51.048;4.686;2023-05-13T05:52:54;18.70;;;11.18;;
44139;SDS011;29803;51.048;4.686;2023-05-13T05:55:25;15.10;;;10.60;;
44139;SDS011;29803;51.048;4.686;2023-05-13T05:57:57;16.30;;;10.07;;
44139;SDS011;29803;51.048;4.686;2023-05-13T06:03:03;12.93;;;8.98;;
44139;SDS011;29803;51.048;4.686;2023-05-13T06:05:33;15.52;;;9.65;;
44139;SDS011;29803;51.048;4.686;2023-05-13T06:08:04;15.10;;;7.93;;
44139;SDS011;29803;51.048;4.686;2023-05-13T06:10:35;13.65;;;7.35;;
44139;SDS011;29803;51.048;4.686;2023-05-13T06:13:05;11.27;;;7.80;;
44139;SDS011;29803;51.048;4.686;2023-05-13T06:15:37;11.65;;;6.97;;
44139;SDS011;29803;51.048;4.686;2023-05-13T06:18:08;15.90;;;8.18;;
44139;SDS011;29803;51.048;4.686;2023-05-13T06:20:38;11.60;;;7.40;;
44139;SDS011;29803;51.048;4.686;2023-05-13T06:23:09;12.38;;;7.90;;
44139;SDS011;29803;51.048;4.686;2023-05-13T06:25:40;9.32;;;7.43;;
44139;SDS011;29803;51.048;4.686;2023-05-13T06:28:11;13.27;;;7.63;;
44139;SDS011;29803;51.048;4.686;2023-05-13T06:30:42;12.15;;;7.13;;
44139;SDS011;29803;51.048;4.686;2023-05-13T06:33:13;8.52;;;7.18;;
44139;SDS011;29803;51.048;4.686;2023-05-13T06:35:43;10.65;;;7.03;;
44139;SDS011;29803;51.048;4.686;2023-05-13T06:38:18;16.27;;;8.05;;
44139;SDS011;29803;51.048;4.686;2023-05-13T06:40:48;10.63;;;6.82;;
44139;SDS011;29803;51.048;4.686;2023-05-13T06:43:19;8.77;;;6.60;;
44139;SDS011;29803;51.048;4.686;2023-05-13T06:45:50;9.07;;;6.95;;
44139;SDS011;29803;51.048;4.686;2023-05-13T06:48:20;12.00;;;6.93;;
44139;SDS011;29803;51.048;4.686;2023-05-13T06:50:51;12.82;;;6.63;;
44139;SDS011;29803;51.048;4.686;2023-05-13T06:53:21;9.55;;;6.38;;
44139;SDS011;29803;51.048;4.686;2023-05-13T06:55:52;9.25;;;6.72;;
44139;SDS011;29803;51.048;4.686;2023-05-13T06:58:22;9.10;;;6.55;;
44139;SDS011;29803;51.048;4.686;2023-05-13T07:00:53;11.07;;;7.88;;
44139;SDS011;29803;51.048;4.686;2023-05-13T07:03:23;9.68;;;7.53;;
44139;SDS011;29803;51.048;4.686;2023-05-13T07:05:54;9.77;;;7.90;;
44139;SDS011;29803;51.048;4.686;2023-05-13T07:08:24;9.80;;;7.72;;
44139;SDS011;29803;51.048;4.686;2023-05-13T07:10:55;13.05;;;8.10;;
44139;SDS011;29803;51.048;4.686;2023-05-13T07:13:25;10.40;;;7.40;;
44139;SDS011;29803;51.048;4.686;2023-05-13T07:15:56;8.93;;;6.03;;
44139;SDS011;29803;51.048;4.686;2023-05-13T07:18:27;9.60;;;6.53;;
44139;SDS011;29803;51.048;4.686;2023-05-13T07:20:58;14.82;;;8.15;;
44139;SDS011;29803;51.048;4.686;2023-05-13T07:23:28;12.65;;;7.93;;
44139;SDS011;29803;51.048;4.686;2023-05-13T07:26:00;12.77;;;7.70;;
44139;SDS011;29803;51.048;4.686;2023-05-13T07:28:31;10.35;;;6.22;;
44139;SDS011;29803;51.048;4.686;2023-05-13T07:31:03;16.98;;;6.75;;
44139;SDS011;29803;51.048;4.686;2023-05-13T07:33:34;10.80;;;7.95;;
44139;SDS011;29803;51.048;4.686;2023-05-13T07:36:05;10.70;;;6.82;;
44139;SDS011;29803;51.048;4.686;2023-05-13T07:38:35;12.90;;;8.15;;
44139;SDS011;29803;51.048;4.686;2023-05-13T07:41:06;11.10;;;7.35;;
44139;SDS011;29803;51.048;4.686;2023-05-13T07:43:37;10.13;;;6.78;;
44139;SDS011;29803;51.048;4.686;2023-05-13T07:46:09;9.20;;;7.25;;
44139;SDS011;29803;51.048;4.686;2023-05-13T07:48:40;8.90;;;7.78;;
44139;SDS011;29803;51.048;4.686;2023-05-13T07:51:10;14.43;;;8.65;;
44139;SDS011;29803;51.048;4.686;2023-05-13T07:53:41;13.90;;;7.18;;
44139;SDS011;29803;51.048;4.686;2023-05-13T07:56:12;11.38;;;6.90;;
44139;SDS011;29803;51.048;4.686;2023-05-13T07:58:42;10.50;;;7.55;;
44139;SDS011;29803;51.048;4.686;2023-05-13T08:01:15;18.55;;;8.10;;
44139;SDS011;29803;51.048;4.686;2023-05-13T08:03:45;19.77;;;8.82;;
44139;SDS011;29803;51.048;4.686;2023-05-13T08:06:16;11.35;;;8.00;;
44139;SDS011;29803;51.048;4.686;2023-05-13T08:08:46;8.40;;;6.97;;
44139;SDS011;29803;51.048;4.686;2023-05-13T08:11:17;12.45;;;8.18;;
44139;SDS011;29803;51.048;4.686;2023-05-13T08:13:47;11.35;;;8.15;;
44139;SDS011;29803;51.048;4.686;2023-05-13T08:16:18;11.38;;;8.18;;
44139;SDS011;29803;51.048;4.686;2023-05-13T08:18:48;14.68;;;7.43;;
44139;SDS011;29803;51.048;4.686;2023-05-13T08:21:19;13.18;;;7.35;;
44139;SDS011;29803;51.048;4.686;2023-05-13T08:23:49;10.68;;;7.68;;
44139;SDS011;29803;51.048;4.686;2023-05-13T08:26:21;17.45;;;9.38;;
44139;SDS011;29803;51.048;4.686;2023-05-13T08:28:52;16.80;;;8.95;;
44139;SDS011;29803;51.048;4.686;2023-05-13T08:31:23;11.95;;;7.80;;
44139;SDS011;29803;51.048;4.686;2023-05-13T08:33:54;12.93;;;7.65;;
44139;SDS011;29803;51.048;4.686;2023-05-13T08:36:25;9.52;;;7.68;;
44139;SDS011;29803;51.048;4.686;2023-05-13T08:38:56;10.73;;;8.32;;
44139;SDS011;29803;51.048;4.686;2023-05-13T08:41:28;13.13;;;8.75;;
44139;SDS011;29803;51.048;4.686;2023-05-13T08:44:02;14.20;;;8.23;;
44139;SDS011;29803;51.048;4.686;2023-05-13T08:46:34;11.05;;;7.72;;
44139;SDS011;29803;51.048;4.686;2023-05-13T08:49:07;15.40;;;9.38;;
44139;SDS011;29803;51.048;4.686;2023-05-13T08:51:38;11.27;;;8.05;;
44139;SDS011;29803;51.048;4.686;2023-05-13T08:54:10;13.70;;;8.15;;
44139;SDS011;29803;51.048;4.686;2023-05-13T08:56:40;15.07;;;8.93;;
44139;SDS011;29803;51.048;4.686;2023-05-13T08:59:11;12.32;;;8.82;;
44139;SDS011;29803;51.048;4.686;2023-05-13T09:01:41;13.00;;;8.35;;
44139;SDS011;29803;51.048;4.686;2023-05-13T09:04:13;15.82;;;9.00;;
44139;SDS011;29803;51.048;4.686;2023-05-13T09:06:45;13.00;;;8.75;;
44139;SDS011;29803;51.048;4.686;2023-05-13T09:09:17;11.45;;;8.35;;
44139;SDS011;29803;51.048;4.686;2023-05-13T09:11:47;18.42;;;8.05;;
44139;SDS011;29803;51.048;4.686;2023-05-13T09:14:18;13.23;;;7.70;;
44139;SDS011;29803;51.048;4.686;2023-05-13T09:16:48;15.48;;;7.63;;
44139;SDS011;29803;51.048;4.686;2023-05-13T09:19:19;12.48;;;7.72;;
44139;SDS011;29803;51.048;4.686;2023-05-13T09:21:52;12.85;;;8.18;;
44139;SDS011;29803;51.048;4.686;2023-05-13T09:24:23;9.93;;;7.22;;
44139;SDS011;29803;51.048;4.686;2023-05-13T09:26:53;11.77;;;7.57;;
44139;SDS011;29803;51.048;4.686;2023-05-13T09:29:25;9.93;;;7.53;;
44139;SDS011;29803;51.048;4.686;2023-05-13T09:31:59;10.73;;;7.50;;
44139;SDS011;29803;51.048;4.686;2023-05-13T09:34:31;14.57;;;7.68;;
44139;SDS011;29803;51.048;4.686;2023-05-13T09:37:04;12.00;;;8.13;;
44139;SDS011;29803;51.048;4.686;2023-05-13T09:39:38;13.25;;;7.38;;
44139;SDS011;29803;51.048;4.686;2023-05-13T09:45:03;12.45;;;6.97;;
44139;SDS011;29803;51.048;4.686;2023-05-13T09:47:35;18.13;;;7.05;;
44139;SDS011;29803;51.048;4.686;2023-05-13T09:50:07;11.32;;;6.93;;
44139;SDS011;29803;51.048;4.686;2023-05-13T09:52:38;10.60;;;6.97;;
44139;SDS011;29803;51.048;4.686;2023-05-13T09:55:09;13.52;;;7.20;;
44139;SDS011;29803;51.048;4.686;2023-05-13T09:57:40;8.13;;;6.05;;
44139;SDS011;29803;51.048;4.686;2023-05-13T10:00:11;10.27;;;6.75;;
44139;SDS011;29803;51.048;4.686;2023-05-13T10:02:42;11.38;;;6.78;;
44139;SDS011;29803;51.048;4.686;2023-05-13T10:05:13;8.88;;;6.55;;
44139;SDS011;29803;51.048;4.686;2023-05-13T10:07:43;9.57;;;7.05;;
44139;SDS011;29803;51.048;4.686;2023-05-13T10:10:14;10.32;;;7.28;;
44139;SDS011;29803;51.048;4.686;2023-05-13T10:12:45;13.20;;;6.97;;
44139;SDS011;29803;51.048;4.686;2023-05-13T10:15:16;11.85;;;7.18;;
44139;SDS011;29803;51.048;4.686;2023-05-13T10:17:47;14.77;;;7.63;;
44139;SDS011;29803;51.048;4.686;2023-05-13T10:20:18;11.52;;;7.63;;
44139;SDS011;29803;51.048;4.686;2023-05-13T10:22:51;12.60;;;7.68;;
44139;SDS011;29803;51.048;4.686;2023-05-13T10:25:23;13.77;;;7.20;;
44139;SDS011;29803;51.048;4.686;2023-05-13T10:27:55;11.15;;;7.00;;
44139;SDS011;29803;51.048;4.686;2023-05-13T10:30:28;15.05;;;6.53;;
44139;SDS011;29803;51.048;4.686;2023-05-13T10:33:01;8.13;;;6.63;;
44139;SDS011;29803;51.048;4.686;2023-05-13T10:35:34;10.52;;;7.18;;
44139;SDS011;29803;51.048;4.686;2023-05-13T10:38:15;12.52;;;8.27;;
44139;SDS011;29803;51.048;4.686;2023-05-13T10:41:05;11.52;;;6.75;;
44139;SDS011;29803;51.048;4.686;2023-05-13T10:43:39;12.07;;;7.63;;
44139;SDS011;29803;51.048;4.686;2023-05-13T10:46:11;8.77;;;6.95;;
44139;SDS011;29803;51.048;4.686;2023-05-13T10:51:31;12.18;;;6.53;;
44139;SDS011;29803;51.048;4.686;2023-05-13T10:54:02;8.95;;;6.65;;
44139;SDS011;29803;51.048;4.686;2023-05-13T10:59:36;12.85;;;6.28;;
44139;SDS011;29803;51.048;4.686;2023-05-13T11:02:42;8.33;;;6.20;;
44139;SDS011;29803;51.048;4.686;2023-05-13T11:07:59;14.15;;;5.60;;
44139;SDS011;29803;51.048;4.686;2023-05-13T11:10:30;17.48;;;6.45;;
44139;SDS011;29803;51.048;4.686;2023-05-13T11:15:51;11.88;;;6.40;;
44139;SDS011;29803;51.048;4.686;2023-05-13T11:21:12;14.05;;;6.18;;
44139;SDS011;29803;51.048;4.686;2023-05-13T11:26:44;8.88;;;6.32;;
44139;SDS011;29803;51.048;4.686;2023-05-13T11:29:28;8.95;;;5.68;;
44139;SDS011;29803;51.048;4.686;2023-05-13T11:32:01;12.63;;;5.25;;
44139;SDS011;29803;51.048;4.686;2023-05-13T11:34:33;10.73;;;4.85;;
44139;SDS011;29803;51.048;4.686;2023-05-13T11:39:34;29.70;;;7.88;;
44139;SDS011;29803;51.048;4.686;2023-05-13T11:42:08;10.90;;;5.85;;
44139;SDS011;29803;51.048;4.686;2023-05-13T11:47:28;7.75;;;4.07;;
44139;SDS011;29803;51.048;4.686;2023-05-13T11:49:59;12.80;;;4.50;;
44139;SDS011;29803;51.048;4.686;2023-05-13T11:52:30;10.65;;;5.10;;
44139;SDS011;29803;51.048;4.686;2023-05-13T11:55:02;6.35;;;4.90;;
44139;SDS011;29803;51.048;4.686;2023-05-13T11:57:33;7.93;;;4.68;;
44139;SDS011;29803;51.048;4.686;2023-05-13T12:00:05;6.93;;;3.70;;
44139;SDS011;29803;51.048;4.686;2023-05-13T12:02:39;5.13;;;3.83;;
44139;SDS011;29803;51.048;4.686;2023-05-13T12:05:10;7.90;;;3.70;;
44139;SDS011;29803;51.048;4.686;2023-05-13T12:07:41;8.85;;;4.22;;
44139;SDS011;29803;51.048;4.686;2023-05-13T12:10:12;7.93;;;3.88;;
44139;SDS011;29803;51.048;4.686;2023-05-13T12:12:44;8.18;;;3.95;;
44139;SDS011;29803;51.048;4.686;2023-05-13T12:15:16;8.02;;;3.80;;
44139;SDS011;29803;51.048;4.686;2023-05-13T12:17:48;6.97;;;3.95;;
44139;SDS011;29803;51.048;4.686;2023-05-13T12:20:20;7.63;;;3.30;;
44139;SDS011;29803;51.048;4.686;2023-05-13T12:22:53;8.68;;;3.80;;
44139;SDS011;29803;51.048;4.686;2023-05-13T12:30:58;9.38;;;4.43;;
44139;SDS011;29803;51.048;4.686;2023-05-13T12:33:32;6.50;;;3.60;;
44139;SDS011;29803;51.048;4.686;2023-05-13T12:39:18;6.28;;;3.88;;
44139;SDS011;29803;51.048;4.686;2023-05-13T12:41:50;7.90;;;3.58;;
44139;SDS011;29803;51.048;4.686;2023-05-13T12:44:23;5.25;;;3.28;;
44139;SDS011;29803;51.048;4.686;2023-05-13T12:46:56;6.03;;;3.00;;
44139;SDS011;29803;51.048;4.686;2023-05-13T12:49:27;5.85;;;3.50;;
44139;SDS011;29803;51.048;4.686;2023-05-13T12:51:57;7.47;;;4.03;;
44139;SDS011;29803;51.048;4.686;2023-05-13T12:54:28;5.25;;;3.55;;
44139;SDS011;29803;51.048;4.686;2023-05-13T12:56:58;6.15;;;3.80;;
44139;SDS011;29803;51.048;4.686;2023-05-13T12:59:29;8.35;;;4.05;;
44139;SDS011;29803;51.048;4.686;2023-05-13T13:02:00;8.93;;;4.05;;
44139;SDS011;29803;51.048;4.686;2023-05-13T13:04:31;7.65;;;3.67;;
44139;SDS011;29803;51.048;4.686;2023-05-13T13:07:01;6.18;;;3.50;;
44139;SDS011;29803;51.048;4.686;2023-05-13T13:09:32;7.75;;;3.78;;
44139;SDS011;29803;51.048;4.686;2023-05-13T13:12:02;7.43;;;3.65;;
44139;SDS011;29803;51.048;4.686;2023-05-13T13:14:33;5.00;;;3.50;;
44139;SDS011;29803;51.048;4.686;2023-05-13T13:17:04;8.55;;;4.10;;
44139;SDS011;29803;51.048;4.686;2023-05-13T13:19:34;4.35;;;3.50;;
44139;SDS011;29803;51.048;4.686;2023-05-13T13:22:05;6.18;;;3.45;;
44139;SDS011;29803;51.048;4.686;2023-05-13T13:24:36;7.88;;;3.97;;
44139;SDS011;29803;51.048;4.686;2023-05-13T13:27:06;11.52;;;4.10;;
44139;SDS011;29803;51.048;4.686;2023-05-13T13:29:38;4.25;;;3.70;;
44139;SDS011;29803;51.048;4.686;2023-05-13T13:32:09;8.05;;;3.90;;
44139;SDS011;29803;51.048;4.686;2023-05-13T13:34:40;5.65;;;3.60;;
44139;SDS011;29803;51.048;4.686;2023-05-13T13:37:10;6.63;;;4.00;;
44139;SDS011;29803;51.048;4.686;2023-05-13T13:39:41;6.85;;;3.70;;
44139;SDS011;29803;51.048;4.686;2023-05-13T13:42:11;7.85;;;4.07;;
44139;SDS011;29803;51.048;4.686;2023-05-13T13:44:42;7.57;;;3.60;;
44139;SDS011;29803;51.048;4.686;2023-05-13T13:47:12;10.02;;;3.80;;
44139;SDS011;29803;51.048;4.686;2023-05-13T13:49:43;3.67;;;3.22;;
44139;SDS011;29803;51.048;4.686;2023-05-13T13:52:14;7.97;;;3.67;;
44139;SDS011;29803;51.048;4.686;2023-05-13T13:54:44;9.35;;;3.70;;
44139;SDS011;29803;51.048;4.686;2023-05-13T13:57:17;8.30;;;4.10;;
44139;SDS011;29803;51.048;4.686;2023-05-13T13:59:47;8.00;;;3.63;;
44139;SDS011;29803;51.048;4.686;2023-05-13T14:02:18;5.15;;;3.50;;
44139;SDS011;29803;51.048;4.686;2023-05-13T14:04:49;5.45;;;3.30;;
44139;SDS011;29803;51.048;4.686;2023-05-13T14:07:19;4.43;;;3.20;;
44139;SDS011;29803;51.048;4.686;2023-05-13T14:09:50;5.65;;;3.70;;
44139;SDS011;29803;51.048;4.686;2023-05-13T14:12:21;7.85;;;4.10;;
44139;SDS011;29803;51.048;4.686;2023-05-13T14:14:52;5.07;;;3.05;;
44139;SDS011;29803;51.048;4.686;2023-05-13T14:17:22;5.95;;;3.13;;
44139;SDS011;29803;51.048;4.686;2023-05-13T14:19:53;5.47;;;3.30;;
44139;SDS011;29803;51.048;4.686;2023-05-13T14:22:24;15.40;;;3.88;;
44139;SDS011;29803;51.048;4.686;2023-05-13T14:24:54;8.07;;;3.90;;
44139;SDS011;29803;51.048;4.686;2023-05-13T14:27:25;5.63;;;3.53;;
44139;SDS011;29803;51.048;4.686;2023-05-13T14:29:57;6.95;;;4.03;;
44139;SDS011;29803;51.048;4.686;2023-05-13T14:32:28;9.55;;;3.80;;
44139;SDS011;29803;51.048;4.686;2023-05-13T14:34:58;5.85;;;4.07;;
44139;SDS011;29803;51.048;4.686;2023-05-13T14:37:29;10.55;;;4.07;;
44139;SDS011;29803;51.048;4.686;2023-05-13T14:40:00;20.52;;;4.60;;
44139;SDS011;29803;51.048;4.686;2023-05-13T14:42:30;5.65;;;4.18;;
44139;SDS011;29803;51.048;4.686;2023-05-13T14:45:01;8.60;;;3.88;;
44139;SDS011;29803;51.048;4.686;2023-05-13T14:47:31;7.15;;;4.03;;
44139;SDS011;29803;51.048;4.686;2023-05-13T14:50:02;6.25;;;4.55;;
44139;SDS011;29803;51.048;4.686;2023-05-13T14:52:33;9.98;;;4.35;;
44139;SDS011;29803;51.048;4.686;2023-05-13T14:55:03;11.40;;;4.28;;
44139;SDS011;29803;51.048;4.686;2023-05-13T14:57:34;8.25;;;4.13;;
44139;SDS011;29803;51.048;4.686;2023-05-13T15:00:05;5.53;;;3.80;;
44139;SDS011;29803;51.048;4.686;2023-05-13T15:02:36;6.03;;;3.97;;
44139;SDS011;29803;51.048;4.686;2023-05-13T15:05:07;6.13;;;3.88;;
44139;SDS011;29803;51.048;4.686;2023-05-13T15:07:38;10.80;;;3.90;;
44139;SDS011;29803;51.048;4.686;2023-05-13T15:10:08;4.78;;;3.83;;
44139;SDS011;29803;51.048;4.686;2023-05-13T15:12:39;10.60;;;4.68;;
44139;SDS011;29803;51.048;4.686;2023-05-13T15:15:10;6.38;;;4.55;;
44139;SDS011;29803;51.048;4.686;2023-05-13T15:17:41;8.00;;;4.78;;
44139;SDS011;29803;51.048;4.686;2023-05-13T15:20:12;12.68;;;5.50;;
44139;SDS011;29803;51.048;4.686;2023-05-13T15:22:42;6.80;;;4.93;;
44139;SDS011;29803;51.048;4.686;2023-05-13T15:25:13;7.18;;;4.90;;
44139;SDS011;29803;51.048;4.686;2023-05-13T15:27:44;6.65;;;4.82;;
44139;SDS011;29803;51.048;4.686;2023-05-13T15:30:14;10.40;;;4.65;;
44139;SDS011;29803;51.048;4.686;2023-05-13T15:32:45;8.70;;;4.30;;
44139;SDS011;29803;51.048;4.686;2023-05-13T15:35:15;9.68;;;4.50;;
44139;SDS011;29803;51.048;4.686;2023-05-13T15:37:46;8.40;;;4.75;;
44139;SDS011;29803;51.048;4.686;2023-05-13T15:40:17;10.40;;;4.78;;
44139;SDS011;29803;51.048;4.686;2023-05-13T15:42:47;8.15;;;4.82;;
44139;SDS011;29803;51.048;4.686;2023-05-13T15:45:18;7.60;;;4.57;;